Time;durP1;ratioP1;P1;durP2;ratioP2;P2;SDS_P1;SDS_P2;PMS_P1;PMS_P2;Temp;Humidity;BMP_temperature;BMP_pressure;BME280_temperature;BME280_humidity;BME280_pressure;Samples;Min_cycle;Max_cycle;Signal;HPM_P1;HPM_P2
2022/12/08 00:01:09;;;;;;;6.10;4.30;;;2.80;99.90;;;;;;5069310;28;20199;-49
2022/12/08 00:03:37;;;;;;;6.20;3.37;;;2.80;99.90;;;;;;5067468;28;20276;-49
2022/12/08 00:11:37;;;;;;;5.23;2.97;;;2.70;99.90;;;;;;5074909;28;20733;-49
2022/12/08 00:14:06;;;;;;;5.13;2.80;;;2.70;99.90;;;;;;5071279;28;20203;-49
2022/12/08 00:16:33;;;;;;;5.97;3.53;;;2.60;99.90;;;;;;5075063;28;20203;-50
2022/12/08 00:19:00;;;;;;;5.57;3.30;;;2.60;99.90;;;;;;5075239;28;20223;-50
2022/12/08 00:21:28;;;;;;;4.27;2.80;;;2.60;99.90;;;;;;5075347;28;20200;-53
2022/12/08 00:23:55;;;;;;;6.07;3.83;;;2.50;99.90;;;;;;5074483;28;20851;-49
2022/12/08 00:26:23;;;;;;;5.63;3.37;;;2.50;99.90;;;;;;5074412;28;20687;-50
2022/12/08 00:28:50;;;;;;;7.27;4.13;;;2.50;99.90;;;;;;5072053;28;20280;-49
2022/12/08 00:31:18;;;;;;;4.07;3.17;;;2.50;99.90;;;;;;5066895;28;20223;-51
2022/12/08 00:33:45;;;;;;;3.73;2.77;;;2.50;99.90;;;;;;5072203;28;20332;-49
2022/12/08 00:36:14;;;;;;;7.17;4.27;;;2.40;99.90;;;;;;5074839;28;20699;-49
2022/12/08 00:38:43;;;;;;;3.77;2.90;;;2.40;99.90;;;;;;5072580;28;20277;-49
2022/12/08 00:41:13;;;;;;;5.53;3.37;;;2.20;99.90;;;;;;5074037;28;20199;-49
2022/12/08 00:43:40;;;;;;;6.60;3.93;;;2.30;99.90;;;;;;5063171;28;20259;-49
2022/12/08 00:46:07;;;;;;;7.63;4.17;;;2.30;99.90;;;;;;5070223;28;20204;-49
2022/12/08 00:48:36;;;;;;;7.57;3.13;;;2.20;99.90;;;;;;5072587;28;20218;-49
2022/12/08 00:51:03;;;;;;;10.10;4.17;;;2.20;99.90;;;;;;5065733;28;20253;-50
2022/12/08 00:53:30;;;;;;;3.53;3.23;;;2.20;99.90;;;;;;5074010;28;20198;-49
2022/12/08 00:55:57;;;;;;;6.37;4.20;;;2.20;99.90;;;;;;5074232;28;20210;-48
2022/12/08 00:58:24;;;;;;;4.70;2.67;;;2.30;99.90;;;;;;5057382;28;20701;-51
2022/12/08 01:00:51;;;;;;;4.83;2.97;;;2.20;99.90;;;;;;5073302;28;20616;-49
2022/12/08 01:03:18;;;;;;;3.47;2.50;;;2.20;99.90;;;;;;5071758;28;20650;-50
2022/12/08 01:05:47;;;;;;;6.97;3.40;;;2.20;99.90;;;;;;5073499;28;20208;-49
2022/12/08 01:08:13;;;;;;;4.07;2.13;;;2.20;99.90;;;;;;5074212;28;20283;-49
2022/12/08 01:10:40;;;;;;;7.00;3.80;;;2.20;99.90;;;;;;5074151;28;20252;-49
2022/12/08 01:13:07;;;;;;;2.73;2.43;;;1.80;99.90;;;;;;5073095;28;20217;-49
2022/12/08 01:15:34;;;;;;;4.07;2.73;;;2.30;99.90;;;;;;5071044;28;20635;-49
2022/12/08 01:18:01;;;;;;;5.03;3.10;;;2.30;99.90;;;;;;5073873;28;20276;-49
2022/12/08 01:20:29;;;;;;;3.23;2.57;;;2.30;99.90;;;;;;5065870;28;20203;-49
2022/12/08 01:22:57;;;;;;;4.90;2.83;;;2.30;99.90;;;;;;5073278;28;20225;-49
2022/12/08 01:25:24;;;;;;;5.57;3.93;;;2.20;99.90;;;;;;5073892;28;20214;-49
2022/12/08 01:27:52;;;;;;;2.47;2.27;;;2.10;99.90;;;;;;5071838;28;20233;-49
2022/12/08 01:30:19;;;;;;;5.17;2.87;;;2.10;99.90;;;;;;5066126;28;20289;-49
2022/12/08 01:32:46;;;;;;;5.03;2.73;;;2.10;99.90;;;;;;5071076;28;20249;-49
2022/12/08 01:35:13;;;;;;;5.03;2.93;;;2.20;99.90;;;;;;5073282;28;20201;-48
2022/12/08 01:37:40;;;;;;;4.50;3.37;;;2.20;99.90;;;;;;5063571;28;20773;-49
2022/12/08 01:40:09;;;;;;;2.87;2.53;;;2.20;99.90;;;;;;5071491;28;20673;-49
2022/12/08 01:42:37;;;;;;;3.47;2.60;;;2.20;99.90;;;;;;5073974;28;20641;-48
2022/12/08 01:45:05;;;;;;;3.47;2.30;;;2.20;99.90;;;;;;5071731;28;20297;-51
2022/12/08 01:47:37;;;;;;;6.13;2.23;;;2.20;99.90;;;;;;5073589;28;20226;-49
2022/12/08 01:50:08;;;;;;;5.20;2.73;;;2.20;99.90;;;;;;5074088;28;20206;-50
2022/12/08 01:52:40;;;;;;;5.10;3.03;;;2.20;99.90;;;;;;5070755;28;20250;-50
2022/12/08 01:55:13;;;;;;;5.73;3.13;;;2.20;99.90;;;;;;5071808;28;20195;-49
2022/12/08 01:57:43;;;;;;;4.53;3.60;;;2.10;99.90;;;;;;5073569;28;20221;-50
2022/12/08 02:00:13;;;;;;;5.30;2.90;;;2.10;99.90;;;;;;5073775;28;20202;-48
2022/12/08 02:02:49;;;;;;;3.13;2.50;;;2.10;99.90;;;;;;5073156;28;20202;-50
2022/12/08 02:05:18;;;;;;;3.60;2.93;;;2.10;99.90;;;;;;5068998;28;20248;-49
2022/12/08 02:07:47;;;;;;;4.70;3.13;;;2.10;99.90;;;;;;5071285;28;20220;-49
2022/12/08 02:10:23;;;;;;;3.50;2.83;;;2.00;99.90;;;;;;5067473;28;20207;-48
2022/12/08 02:12:53;;;;;;;2.77;2.03;;;2.00;99.90;;;;;;5071486;28;20216;-49
2022/12/08 02:15:23;;;;;;;3.23;2.20;;;1.90;99.90;;;;;;5073015;28;20204;-48
2022/12/08 02:18:03;;;;;;;2.33;2.07;;;2.00;99.90;;;;;;5072421;28;20271;-49
2022/12/08 02:20:45;;;;;;;3.97;3.07;;;1.90;99.90;;;;;;5071773;28;20206;-49
2022/12/08 02:23:23;;;;;;;3.00;2.23;;;1.90;99.90;;;;;;5061587;28;20255;-50
2022/12/08 02:26:31;;;;;;;2.17;1.97;;;1.90;99.90;;;;;;5069335;28;20256;-49
2022/12/08 02:29:24;;;;;;;4.60;2.70;;;1.80;99.90;;;;;;5063151;28;20277;-49
2022/12/08 02:32:03;;;;;;;3.30;1.80;;;1.80;99.90;;;;;;5070064;28;20218;-48
2022/12/08 02:34:41;;;;;;;3.37;2.03;;;1.80;99.90;;;;;;5069972;28;20198;-49
2022/12/08 02:37:16;;;;;;;4.00;1.93;;;1.70;99.90;;;;;;5067090;28;20691;-48
2022/12/08 02:39:50;;;;;;;2.50;1.70;;;1.60;99.90;;;;;;5070383;28;20253;-50
2022/12/08 02:42:25;;;;;;;2.27;1.87;;;1.60;99.90;;;;;;5061996;28;20200;-49
2022/12/08 02:44:57;;;;;;;1.67;1.57;;;1.60;99.90;;;;;;5068227;28;20635;-49
2022/12/08 02:47:26;;;;;;;1.63;1.50;;;1.60;99.90;;;;;;5064707;28;20234;-49
2022/12/08 02:49:55;;;;;;;1.83;1.67;;;1.70;99.90;;;;;;5070098;28;20218;-49
2022/12/08 02:52:42;;;;;;;3.23;1.50;;;1.70;99.90;;;;;;5067000;28;20217;-50
2022/12/08 02:55:17;;;;;;;4.60;1.53;;;1.60;99.90;;;;;;5069317;28;20275;-50
2022/12/08 02:57:55;;;;;;;2.17;1.93;;;1.70;99.90;;;;;;5065873;28;20225;-50
2022/12/08 03:00:24;;;;;;;2.43;1.33;;;1.70;99.90;;;;;;5072065;28;20199;-49
2022/12/08 03:03:05;;;;;;;3.80;1.80;;;1.60;99.90;;;;;;5071804;28;20264;-49
2022/12/08 03:05:50;;;;;;;3.33;2.13;;;1.60;99.90;;;;;;5063815;28;20201;-49
2022/12/08 03:08:22;;;;;;;1.63;1.53;;;1.80;99.90;;;;;;5068544;28;20252;-50
2022/12/08 03:10:56;;;;;;;2.63;1.70;;;1.60;99.90;;;;;;5066323;28;20199;-49
2022/12/08 03:13:28;;;;;;;2.50;1.97;;;1.60;99.90;;;;;;5063500;28;20215;-49
2022/12/08 03:15:56;;;;;;;3.53;1.77;;;1.50;99.90;;;;;;5065530;28;20244;-48
2022/12/08 03:18:28;;;;;;;4.47;1.73;;;1.50;99.90;;;;;;5071966;28;20739;-49
2022/12/08 03:20:57;;;;;;;1.83;1.73;;;1.50;99.90;;;;;;5069531;28;20207;-50
2022/12/08 03:23:25;;;;;;;2.73;1.80;;;1.50;99.90;;;;;;5070681;28;20225;-49
2022/12/08 03:25:58;;;;;;;2.57;1.93;;;1.50;99.90;;;;;;5068527;28;20228;-50
2022/12/08 03:28:25;;;;;;;1.53;1.40;;;1.50;99.90;;;;;;5051784;28;20295;-50
2022/12/08 03:30:57;;;;;;;5.80;1.63;;;1.40;99.90;;;;;;5059434;28;20247;-49
2022/12/08 03:33:29;;;;;;;4.40;2.40;;;1.40;99.90;;;;;;5068800;28;20223;-48
2022/12/08 03:35:59;;;;;;;2.80;2.43;;;1.40;99.90;;;;;;5072187;28;20200;-48
2022/12/08 03:38:26;;;;;;;1.80;1.47;;;1.40;99.90;;;;;;5071873;28;20715;-49
2022/12/08 03:43:34;;;;;;;2.37;1.80;;;1.40;99.90;;;;;;5067847;28;20244;-48
2022/12/08 03:46:01;;;;;;;2.17;1.97;;;1.30;99.90;;;;;;5071556;28;20735;-50
2022/12/08 03:48:28;;;;;;;4.03;1.40;;;1.40;99.90;;;;;;5072029;28;20335;-48
2022/12/08 03:50:56;;;;;;;3.27;1.77;;;1.30;99.90;;;;;;5071952;28;20623;-49
2022/12/08 03:53:23;;;;;;;2.43;1.67;;;1.30;99.90;;;;;;5070999;28;20223;-49
2022/12/08 03:55:50;;;;;;;3.20;1.53;;;1.40;99.90;;;;;;5054518;28;20229;-49
2022/12/08 03:58:17;;;;;;;2.77;1.70;;;1.30;99.90;;;;;;5065315;28;20228;-49
2022/12/08 04:00:45;;;;;;;4.63;2.07;;;1.30;99.90;;;;;;5071633;28;20207;-48
2022/12/08 04:03:12;;;;;;;1.50;1.40;;;1.30;99.90;;;;;;5070945;28;20739;-48
2022/12/08 04:05:39;;;;;;;2.47;1.90;;;1.30;99.90;;;;;;5069906;28;20206;-50
2022/12/08 04:08:07;;;;;;;2.03;1.30;;;1.30;99.90;;;;;;5070303;28;20708;-48
2022/12/08 04:10:34;;;;;;;4.80;1.77;;;1.20;99.90;;;;;;5070484;28;20653;-49
2022/12/08 04:13:01;;;;;;;3.23;1.57;;;1.20;99.90;;;;;;5062058;28;20263;-49
2022/12/08 04:15:28;;;;;;;3.70;1.70;;;1.10;99.90;;;;;;5071554;28;20204;-49
2022/12/08 04:17:55;;;;;;;2.23;1.70;;;1.10;99.90;;;;;;5071203;28;20223;-49
2022/12/08 04:20:23;;;;;;;5.23;2.03;;;1.10;99.90;;;;;;5071547;28;20194;-49
2022/12/08 04:22:50;;;;;;;2.30;1.73;;;1.10;99.90;;;;;;5071558;28;20203;-49
2022/12/08 04:25:19;;;;;;;2.87;1.67;;;1.10;99.90;;;;;;5070833;28;20268;-48
2022/12/08 04:27:46;;;;;;;4.10;1.97;;;1.10;99.90;;;;;;5069960;28;20780;-49
2022/12/08 04:30:13;;;;;;;1.90;1.43;;;1.00;99.90;;;;;;5070992;28;20599;-49
2022/12/08 04:32:40;;;;;;;1.47;1.20;;;1.00;99.90;;;;;;5071365;28;20214;-50
2022/12/08 04:35:08;;;;;;;1.37;1.20;;;1.00;99.90;;;;;;5070445;28;20208;-48
2022/12/08 04:37:34;;;;;;;1.40;1.30;;;1.00;99.90;;;;;;5071245;28;21054;-50
2022/12/08 04:40:01;;;;;;;2.60;1.47;;;1.00;99.90;;;;;;5069015;28;20727;-49
2022/12/08 04:42:30;;;;;;;2.00;1.50;;;1.00;99.90;;;;;;5071433;28;20194;-50
2022/12/08 04:44:57;;;;;;;2.63;1.10;;;1.00;99.90;;;;;;5069458;28;20201;-48
2022/12/08 04:47:24;;;;;;;1.90;1.13;;;1.00;99.90;;;;;;5070964;28;20777;-48
2022/12/08 04:49:51;;;;;;;3.70;1.37;;;1.00;99.90;;;;;;5071454;28;20736;-48
2022/12/08 04:52:18;;;;;;;1.37;1.27;;;0.90;99.90;;;;;;5070046;28;20244;-51
2022/12/08 04:54:45;;;;;;;0.80;0.80;;;0.90;99.90;;;;;;5072366;28;20228;-51
2022/12/08 04:57:12;;;;;;;1.00;1.00;;;1.00;99.90;;;;;;5074454;28;20215;-49
2022/12/08 04:59:41;;;;;;;2.37;1.13;;;1.00;99.90;;;;;;5074727;28;20193;-49
2022/12/08 05:02:08;;;;;;;3.60;1.67;;;1.00;99.90;;;;;;5071685;28;20760;-49
2022/12/08 05:04:39;;;;;;;2.73;1.47;;;1.00;99.90;;;;;;5070743;28;20584;-49
2022/12/08 05:07:07;;;;;;;1.20;0.53;;;0.90;99.90;;;;;;5069028;28;20708;-49
2022/12/08 05:09:34;;;;;;;2.30;1.10;;;0.90;99.90;;;;;;5074780;28;20587;-50
2022/12/08 05:12:01;;;;;;;1.30;1.20;;;0.90;99.90;;;;;;5074138;28;20667;-48
2022/12/08 05:14:28;;;;;;;1.07;0.90;;;0.90;99.90;;;;;;5074008;28;20231;-48
2022/12/08 05:16:57;;;;;;;1.90;1.13;;;0.90;99.90;;;;;;5075041;28;20261;-51
2022/12/08 05:19:24;;;;;;;1.67;1.20;;;0.90;99.90;;;;;;5068773;28;20251;-50
2022/12/08 05:21:51;;;;;;;3.70;1.23;;;0.90;99.90;;;;;;5087150;28;20211;-49
2022/12/08 05:24:18;;;;;;;2.97;1.40;;;0.90;99.90;;;;;;5089509;28;20197;-51
2022/12/08 05:26:45;;;;;;;2.40;1.53;;;1.00;99.90;;;;;;5089075;28;20226;-49
2022/12/08 05:29:12;;;;;;;3.07;1.00;;;1.00;99.90;;;;;;5074653;28;20618;-49
2022/12/08 05:31:39;;;;;;;2.37;1.00;;;1.00;99.90;;;;;;5074338;28;20203;-50
2022/12/08 05:34:07;;;;;;;3.50;1.47;;;1.00;99.90;;;;;;5072741;28;20633;-50
2022/12/08 05:36:34;;;;;;;1.90;1.33;;;1.00;99.90;;;;;;5073593;28;20207;-49
2022/12/08 05:39:01;;;;;;;2.03;1.30;;;0.90;99.90;;;;;;5074148;28;20641;-51
2022/12/08 05:41:28;;;;;;;3.50;1.30;;;1.00;99.90;;;;;;5073051;28;20202;-50
2022/12/08 05:43:55;;;;;;;1.57;1.10;;;0.90;99.90;;;;;;5072540;28;20202;-50
2022/12/08 05:46:22;;;;;;;1.70;1.37;;;0.80;99.90;;;;;;5072906;28;20206;-49
2022/12/08 05:48:49;;;;;;;2.43;1.37;;;0.80;99.90;;;;;;5073746;28;20275;-49
2022/12/08 05:51:19;;;;;;;1.83;1.33;;;0.90;99.90;;;;;;5072636;28;20656;-50
2022/12/08 05:53:47;;;;;;;1.90;0.60;;;0.80;99.90;;;;;;5067091;28;20231;-51
2022/12/08 05:56:14;;;;;;;1.83;0.93;;;0.80;99.90;;;;;;5072863;28;20209;-50
2022/12/08 05:58:41;;;;;;;5.47;1.10;;;0.80;99.90;;;;;;5072826;28;20226;-49
2022/12/08 06:01:17;;;;;;;1.03;1.00;;;0.80;99.90;;;;;;5072739;28;20198;-49
2022/12/08 06:03:44;;;;;;;4.83;0.97;;;0.90;99.90;;;;;;5071063;28;20674;-47
2022/12/08 06:06:11;;;;;;;1.43;1.03;;;0.90;99.90;;;;;;5073589;28;20348;-49
2022/12/08 06:08:39;;;;;;;1.30;0.87;;;0.80;99.90;;;;;;5072434;28;20221;-50
2022/12/08 06:11:06;;;;;;;2.97;1.20;;;0.80;99.90;;;;;;5066637;28;20673;-49
2022/12/08 06:13:33;;;;;;;1.60;1.03;;;0.80;99.90;;;;;;5063614;28;20219;-49
2022/12/08 06:16:04;;;;;;;1.60;0.93;;;0.80;99.90;;;;;;5063917;28;20198;-50
2022/12/08 06:18:31;;;;;;;1.37;1.00;;;0.80;99.90;;;;;;5073097;28;20226;-50
2022/12/08 06:21:03;;;;;;;2.87;1.70;;;0.80;99.90;;;;;;5073432;28;20204;-49
2022/12/08 06:23:30;;;;;;;1.87;1.10;;;0.80;99.90;;;;;;5072650;28;20200;-50
2022/12/08 06:26:02;;;;;;;2.50;0.90;;;0.80;99.90;;;;;;5071212;28;20743;-49
2022/12/08 06:28:29;;;;;;;1.50;1.10;;;0.80;99.90;;;;;;5072865;28;20283;-50
2022/12/08 06:30:56;;;;;;;3.70;1.30;;;0.80;99.90;;;;;;5072947;28;20204;-49
2022/12/08 06:33:24;;;;;;;1.97;1.07;;;0.80;99.90;;;;;;5071664;28;20248;-50
2022/12/08 06:35:51;;;;;;;3.03;0.87;;;0.70;99.90;;;;;;5072454;28;20202;-50
2022/12/08 06:38:18;;;;;;;3.57;1.00;;;0.60;99.90;;;;;;5072574;28;20224;-50
2022/12/08 06:40:53;;;;;;;2.50;1.60;;;0.60;99.90;;;;;;5071255;28;20201;-49
2022/12/08 06:43:21;;;;;;;4.20;2.40;;;0.60;99.90;;;;;;5065932;28;20210;-49
2022/12/08 06:45:48;;;;;;;2.60;2.17;;;0.50;99.90;;;;;;5052450;28;20213;-48
2022/12/08 06:48:16;;;;;;;1.83;1.70;;;0.60;99.90;;;;;;5055504;28;20222;-48
2022/12/08 06:50:43;;;;;;;1.23;1.17;;;0.50;99.90;;;;;;5072136;28;20284;-49
2022/12/08 06:53:11;;;;;;;2.97;1.60;;;0.50;99.90;;;;;;5071632;28;20250;-49
2022/12/08 06:55:42;;;;;;;2.53;1.43;;;0.60;99.90;;;;;;5072488;28;20262;-48
2022/12/08 06:58:09;;;;;;;2.83;1.20;;;0.60;99.90;;;;;;5071070;28;20271;-49
2022/12/08 07:00:38;;;;;;;2.87;0.80;;;0.70;99.90;;;;;;5064387;28;20648;-49
2022/12/08 07:03:06;;;;;;;2.07;0.73;;;0.60;99.90;;;;;;5067078;28;20195;-49
2022/12/08 07:05:33;;;;;;;1.17;1.07;;;0.60;99.90;;;;;;5067170;28;20201;-50
2022/12/08 07:08:00;;;;;;;3.53;0.70;;;0.60;99.90;;;;;;5070968;28;20217;-49
2022/12/08 07:10:27;;;;;;;2.17;1.03;;;0.70;99.90;;;;;;5069987;28;20730;-50
2022/12/08 07:12:54;;;;;;;1.90;0.90;;;0.70;99.90;;;;;;5071975;28;20274;-49
2022/12/08 07:15:21;;;;;;;1.07;0.73;;;0.70;99.90;;;;;;5069429;28;20202;-49
2022/12/08 07:17:49;;;;;;;2.10;1.10;;;0.80;99.90;;;;;;5069793;28;20267;-49
2022/12/08 07:20:17;;;;;;;2.90;0.80;;;0.80;99.90;;;;;;5064125;28;20207;-50
2022/12/08 07:22:48;;;;;;;1.60;0.70;;;0.80;99.90;;;;;;5071935;28;20606;-50
2022/12/08 07:25:16;;;;;;;2.60;1.57;;;0.80;99.90;;;;;;5071344;28;20634;-49
2022/12/08 07:27:43;;;;;;;2.67;0.70;;;0.80;99.90;;;;;;5072041;28;20287;-49
2022/12/08 07:30:11;;;;;;;1.90;1.13;;;0.70;99.90;;;;;;5071906;28;20250;-48
2022/12/08 07:32:38;;;;;;;2.73;1.00;;;0.70;99.90;;;;;;5069673;28;20623;-50
2022/12/08 07:35:08;;;;;;;4.37;1.17;;;0.70;99.90;;;;;;5061374;28;20217;-49
2022/12/08 07:37:36;;;;;;;1.93;1.70;;;0.80;99.90;;;;;;5070924;28;20257;-49
2022/12/08 07:40:04;;;;;;;1.27;1.10;;;0.80;99.90;;;;;;5070293;28;20828;-49
2022/12/08 07:42:30;;;;;;;1.43;1.10;;;0.70;99.90;;;;;;5071880;28;20198;-49
2022/12/08 07:44:57;;;;;;;1.90;1.33;;;0.70;99.90;;;;;;5066188;28;20202;-49
2022/12/08 07:47:24;;;;;;;1.60;1.20;;;0.70;99.90;;;;;;5068537;28;20652;-50
2022/12/08 07:49:51;;;;;;;1.13;0.93;;;0.70;99.90;;;;;;5067112;28;20252;-49
2022/12/08 07:52:20;;;;;;;3.17;1.10;;;0.80;99.90;;;;;;5071659;28;20224;-50
2022/12/08 07:54:47;;;;;;;2.20;1.17;;;0.80;99.90;;;;;;5068247;28;20219;-50
2022/12/08 07:57:14;;;;;;;2.60;1.20;;;0.80;99.90;;;;;;5070595;28;20715;-50
2022/12/08 07:59:41;;;;;;;2.17;1.00;;;0.90;99.90;;;;;;5069078;28;20194;-50
2022/12/08 08:02:16;;;;;;;1.93;1.33;;;0.90;99.90;;;;;;5071539;28;20255;-49
2022/12/08 08:04:43;;;;;;;2.23;1.43;;;1.10;99.90;;;;;;5066051;28;20263;-50
2022/12/08 08:07:10;;;;;;;2.03;1.00;;;1.10;99.90;;;;;;5064084;28;20231;-49
2022/12/08 08:09:42;;;;;;;3.83;1.27;;;1.20;99.90;;;;;;5053884;28;20200;-50
2022/12/08 08:12:10;;;;;;;1.40;1.00;;;1.30;99.90;;;;;;5068027;28;20231;-50
2022/12/08 08:14:39;;;;;;;3.33;1.10;;;1.30;99.90;;;;;;5065586;28;20267;-49
2022/12/08 08:17:06;;;;;;;3.13;1.70;;;1.30;99.90;;;;;;5068102;28;20300;-50
2022/12/08 08:19:33;;;;;;;1.57;1.30;;;1.30;99.90;;;;;;5062664;28;20231;-49
2022/12/08 08:22:00;;;;;;;2.83;2.30;;;1.40;99.90;;;;;;5071085;28;20260;-49
2022/12/08 08:24:27;;;;;;;4.53;1.43;;;1.60;99.90;;;;;;5066140;28;20249;-49
2022/12/08 08:26:55;;;;;;;7.00;1.43;;;1.60;99.90;;;;;;5072878;28;20214;-49
2022/12/08 08:29:22;;;;;;;4.43;2.40;;;1.80;99.90;;;;;;5074783;28;20202;-50
2022/12/08 08:31:49;;;;;;;5.07;1.53;;;1.90;99.90;;;;;;5075033;28;20207;-49
2022/12/08 08:34:16;;;;;;;2.23;1.17;;;2.00;99.90;;;;;;5074426;28;20719;-49
2022/12/08 08:36:44;;;;;;;2.83;1.40;;;1.90;99.90;;;;;;5073435;28;20252;-48
2022/12/08 08:39:11;;;;;;;1.37;1.27;;;1.90;99.90;;;;;;5074877;28;20204;-48
2022/12/08 08:41:39;;;;;;;2.10;1.40;;;2.00;99.90;;;;;;5062785;28;20207;-50
2022/12/08 08:44:07;;;;;;;3.57;1.73;;;2.10;99.90;;;;;;5073239;28;20244;-49
2022/12/08 08:46:35;;;;;;;3.37;1.60;;;2.20;99.90;;;;;;5074956;28;20552;-49
2022/12/08 08:49:02;;;;;;;6.10;1.97;;;2.20;99.90;;;;;;5073176;28;20217;-50
2022/12/08 08:51:29;;;;;;;1.93;1.83;;;2.20;99.90;;;;;;5074235;28;20196;-48
2022/12/08 08:53:56;;;;;;;1.77;1.40;;;2.30;99.90;;;;;;5073657;28;20222;-49
2022/12/08 08:56:24;;;;;;;1.57;1.30;;;2.50;99.90;;;;;;5072690;28;20199;-48
2022/12/08 08:58:52;;;;;;;4.73;0.97;;;2.60;99.90;;;;;;5072816;28;20229;-49
2022/12/08 09:01:23;;;;;;;5.27;1.33;;;2.60;99.90;;;;;;5074215;28;20202;-50
2022/12/08 09:03:50;;;;;;;1.33;1.00;;;2.60;99.90;;;;;;5073523;28;20203;-48
2022/12/08 09:06:18;;;;;;;1.70;1.13;;;2.60;99.90;;;;;;5073425;28;20727;-50
2022/12/08 09:08:45;;;;;;;4.87;1.60;;;2.70;99.90;;;;;;5074294;28;20230;-49
2022/12/08 09:11:13;;;;;;;1.47;1.30;;;2.70;99.90;;;;;;5074462;28;20210;-49
2022/12/08 09:13:40;;;;;;;2.47;1.67;;;2.90;99.90;;;;;;5073520;28;20587;-50
2022/12/08 09:16:09;;;;;;;2.37;1.33;;;3.00;99.90;;;;;;5073690;28;20210;-50
2022/12/08 09:18:37;;;;;;;4.43;1.47;;;3.10;99.90;;;;;;5073988;28;20608;-50
2022/12/08 09:21:07;;;;;;;3.00;1.00;;;3.20;99.90;;;;;;5072714;28;20199;-50
2022/12/08 09:23:34;;;;;;;2.13;1.23;;;3.20;99.90;;;;;;5070644;28;20198;-49
2022/12/08 09:26:01;;;;;;;1.20;1.20;;;3.20;99.90;;;;;;5069480;28;20207;-50
2022/12/08 09:28:28;;;;;;;1.33;0.97;;;3.00;99.90;;;;;;5070560;28;20233;-48
2022/12/08 09:30:55;;;;;;;1.53;1.43;;;3.00;99.90;;;;;;5069475;28;20571;-49
2022/12/08 09:33:22;;;;;;;1.87;1.43;;;2.90;99.90;;;;;;5069522;28;20719;-50
2022/12/08 09:35:51;;;;;;;2.40;1.10;;;3.00;99.90;;;;;;5068787;28;20202;-50
2022/12/08 09:38:18;;;;;;;1.37;1.10;;;3.00;99.90;;;;;;5067672;28;20230;-49
2022/12/08 09:40:49;;;;;;;2.33;1.03;;;3.20;99.90;;;;;;5069281;28;20846;-49
2022/12/08 09:43:30;;;;;;;1.60;0.90;;;3.30;99.90;;;;;;5069301;28;20295;-48
2022/12/08 09:45:58;;;;;;;2.17;1.50;;;3.30;99.90;;;;;;5068977;28;20264;-49
2022/12/08 09:48:32;;;;;;;1.88;1.67;;;3.30;99.90;;;;;;5063112;28;20454;-49
2022/12/08 09:51:03;;;;;;;1.27;1.20;;;3.40;99.90;;;;;;5067472;28;20289;-49
2022/12/08 09:53:35;;;;;;;1.07;1.00;;;3.60;99.90;;;;;;5069548;28;20239;-49
2022/12/08 09:56:08;;;;;;;3.17;1.33;;;3.70;99.90;;;;;;5069461;28;20299;-48
2022/12/08 09:58:46;;;;;;;7.60;1.87;;;3.90;99.90;;;;;;5067329;28;20657;-49
2022/12/08 10:01:14;;;;;;;1.40;1.13;;;4.00;99.90;;;;;;5063576;28;20275;-49
2022/12/08 10:03:42;;;;;;;2.97;2.00;;;4.20;99.90;;;;;;5060521;28;20209;-49
2022/12/08 10:06:24;;;;;;;2.10;1.93;;;4.30;99.90;;;;;;5061735;28;20215;-50
2022/12/08 10:09:00;;;;;;;2.60;1.77;;;4.40;99.90;;;;;;5061327;28;20248;-49
2022/12/08 10:11:35;;;;;;;1.13;1.03;;;4.90;99.90;;;;;;5061742;28;20205;-50
2022/12/08 10:14:14;;;;;;;1.37;1.27;;;5.20;99.90;;;;;;5060497;28;20241;-48
2022/12/08 10:16:44;;;;;;;3.27;1.70;;;5.50;99.90;;;;;;5060483;28;20195;-48
2022/12/08 10:19:15;;;;;;;3.27;1.63;;;5.70;99.90;;;;;;5061009;28;20223;-49
2022/12/08 10:21:45;;;;;;;1.73;1.63;;;6.00;99.90;;;;;;5060681;28;20209;-48
2022/12/08 10:24:20;;;;;;;4.93;1.77;;;6.00;99.90;;;;;;5060259;28;20204;-48
2022/12/08 10:26:47;;;;;;;1.70;1.60;;;6.40;99.90;;;;;;5018854;28;1226407;-49
2022/12/08 10:29:15;;;;;;;2.33;1.57;;;6.30;99.90;;;;;;5061665;28;20571;-49
2022/12/08 10:31:42;;;;;;;4.47;1.83;;;6.10;99.90;;;;;;5061130;28;20206;-49
2022/12/08 10:34:18;;;;;;;3.27;2.20;;;6.10;99.90;;;;;;5060135;28;21064;-49
2022/12/08 10:36:49;;;;;;;3.00;1.87;;;5.90;99.90;;;;;;5061483;28;20199;-50
2022/12/08 10:39:34;;;;;;;2.13;1.63;;;5.70;99.90;;;;;;5061590;28;20220;-49
2022/12/08 10:42:06;;;;;;;2.70;1.63;;;5.60;99.90;;;;;;5062908;28;20200;-49
2022/12/08 10:44:34;;;;;;;2.23;1.50;;;5.40;99.90;;;;;;5061391;28;20719;-50
2022/12/08 10:47:12;;;;;;;2.07;1.63;;;5.20;99.90;;;;;;5062457;28;20302;-48
2022/12/08 10:49:43;;;;;;;1.47;1.37;;;5.10;99.90;;;;;;5060576;28;20812;-48
2022/12/08 10:52:23;;;;;;;1.43;1.33;;;5.10;99.90;;;;;;5060308;28;20295;-48
2022/12/08 10:54:54;;;;;;;2.93;2.17;;;5.00;99.90;;;;;;5060616;28;20211;-49
2022/12/08 10:57:24;;;;;;;1.83;1.63;;;5.10;99.90;;;;;;5061150;28;20278;-48
2022/12/08 10:59:55;;;;;;;1.43;1.30;;;5.20;99.90;;;;;;5065137;28;20199;-49
2022/12/08 11:02:23;;;;;;;3.60;2.03;;;5.10;99.90;;;;;;5065243;28;20196;-49
2022/12/08 11:04:59;;;;;;;5.60;1.73;;;5.20;99.90;;;;;;5060071;28;20196;-49
2022/12/08 11:07:28;;;;;;;2.27;2.03;;;5.10;99.90;;;;;;5058712;28;20218;-48
2022/12/08 11:09:58;;;;;;;4.20;1.97;;;5.20;99.90;;;;;;5060652;28;20817;-49
2022/12/08 11:12:29;;;;;;;2.57;1.70;;;5.40;99.90;;;;;;5058324;28;20207;-48
2022/12/08 11:15:02;;;;;;;2.40;1.60;;;5.40;99.90;;;;;;5058105;28;20357;-49
2022/12/08 11:17:38;;;;;;;3.07;2.00;;;5.50;99.90;;;;;;5057684;28;20283;-50
2022/12/08 11:20:21;;;;;;;2.70;2.30;;;5.50;99.90;;;;;;5059014;28;20197;-48
2022/12/08 11:22:54;;;;;;;2.20;2.10;;;5.40;99.90;;;;;;5061361;28;20205;-49
2022/12/08 11:25:24;;;;;;;2.83;1.87;;;5.40;99.90;;;;;;5053084;28;20322;-49
2022/12/08 11:27:53;;;;;;;3.17;2.87;;;5.40;99.90;;;;;;5057708;28;20231;-50
2022/12/08 11:30:22;;;;;;;1.97;1.87;;;5.30;99.90;;;;;;5059221;28;20208;-49
2022/12/08 11:32:54;;;;;;;3.93;3.33;;;5.30;99.90;;;;;;5059764;28;20672;-49
2022/12/08 11:35:26;;;;;;;3.43;3.13;;;5.40;99.90;;;;;;5058539;28;20214;-49
2022/12/08 11:37:58;;;;;;;3.23;2.67;;;5.40;99.90;;;;;;5067481;28;20221;-48
2022/12/08 11:40:38;;;;;;;4.73;2.30;;;5.40;99.90;;;;;;5058323;28;20267;-50
2022/12/08 11:43:14;;;;;;;3.30;2.93;;;5.40;99.90;;;;;;5061902;28;20684;-50
2022/12/08 11:45:42;;;;;;;4.27;3.87;;;5.50;99.90;;;;;;5058480;28;20205;-49
2022/12/08 11:48:14;;;;;;;3.07;2.53;;;5.50;99.90;;;;;;5061504;28;20226;-49
2022/12/08 11:50:45;;;;;;;3.70;3.37;;;5.50;99.90;;;;;;5066897;28;20681;-49
2022/12/08 11:53:27;;;;;;;3.60;2.90;;;5.50;99.90;;;;;;5061375;28;20212;-50
2022/12/08 11:55:58;;;;;;;4.67;3.17;;;5.50;99.90;;;;;;5060154;28;20215;-50
2022/12/08 11:58:31;;;;;;;3.93;3.17;;;5.50;99.90;;;;;;5061018;28;20224;-49
2022/12/08 12:00:58;;;;;;;3.30;3.10;;;5.50;99.90;;;;;;5061405;28;20680;-50
2022/12/08 12:03:32;;;;;;;3.07;2.60;;;5.50;99.90;;;;;;5062410;28;20203;-48
2022/12/08 12:06:24;;;;;;;5.63;3.60;;;5.40;99.90;;;;;;5063878;28;20373;-50
2022/12/08 12:09:02;;;;;;;4.30;3.80;;;5.50;99.90;;;;;;5060848;28;20933;-49
2022/12/08 12:14:36;;;;;;;3.30;3.00;;;5.50;99.90;;;;;;5063120;28;20251;-50
2022/12/08 12:17:05;;;;;;;5.03;4.17;;;5.40;99.90;;;;;;5064348;28;20286;-49
2022/12/08 12:19:37;;;;;;;4.43;3.57;;;5.30;99.90;;;;;;5064205;28;20199;-48
2022/12/08 12:22:14;;;;;;;8.60;5.00;;;5.20;99.90;;;;;;5063630;28;20722;-50
2022/12/08 12:24:45;;;;;;;7.03;6.20;;;5.30;99.90;;;;;;5067693;28;20194;-48
2022/12/08 12:27:24;;;;;;;6.60;5.20;;;5.30;99.90;;;;;;5070701;28;20239;-50
2022/12/08 12:29:56;;;;;;;6.57;5.70;;;5.30;99.90;;;;;;5071145;28;20238;-50
2022/12/08 12:32:24;;;;;;;9.27;5.87;;;5.20;99.90;;;;;;5070624;28;20204;-50
2022/12/08 12:34:55;;;;;;;5.97;4.70;;;5.10;99.90;;;;;;5069603;28;20251;-50
2022/12/08 12:37:24;;;;;;;8.10;5.10;;;5.10;99.90;;;;;;5073036;28;20230;-50
2022/12/08 12:40:00;;;;;;;8.53;5.63;;;5.30;99.90;;;;;;5065530;28;20231;-49
2022/12/08 12:42:41;;;;;;;7.20;6.30;;;5.40;99.90;;;;;;5063344;28;20193;-48
2022/12/08 12:45:24;;;;;;;12.53;7.33;;;5.40;99.90;;;;;;5061000;28;20209;-49
2022/12/08 12:47:52;;;;;;;10.93;6.90;;;5.40;99.90;;;;;;5062078;28;20245;-49
2022/12/08 12:50:41;;;;;;;8.07;6.03;;;5.40;99.90;;;;;;5060849;28;20203;-50
2022/12/08 12:53:48;;;;;;;8.03;5.90;;;5.40;99.90;;;;;;5061245;28;20618;-49
2022/12/08 12:56:51;;;;;;;6.47;5.50;;;5.40;99.90;;;;;;5062197;28;20309;-49
2022/12/08 12:59:46;;;;;;;8.83;6.07;;;5.40;99.90;;;;;;5063379;28;20212;-49
2022/12/08 13:02:23;;;;;;;7.83;6.40;;;5.30;99.90;;;;;;5063966;28;20214;-49
2022/12/08 13:04:58;;;;;;;8.73;6.27;;;5.20;99.90;;;;;;5059740;28;20203;-49
2022/12/08 13:07:27;;;;;;;11.37;6.83;;;5.30;99.90;;;;;;5061391;28;20219;-50
2022/12/08 13:10:00;;;;;;;6.73;5.33;;;5.30;99.90;;;;;;5065691;28;20717;-49
2022/12/08 13:12:29;;;;;;;9.33;7.07;;;5.30;99.90;;;;;;5065586;28;20678;-49
2022/12/08 13:15:03;;;;;;;10.60;7.20;;;5.30;99.90;;;;;;5065208;28;20231;-48
2022/12/08 13:17:32;;;;;;;12.07;7.70;;;5.20;99.90;;;;;;5060287;28;20217;-50
2022/12/08 13:20:01;;;;;;;10.70;6.57;;;5.20;99.90;;;;;;5063447;28;20273;-49
2022/12/08 13:22:49;;;;;;;7.43;6.63;;;5.20;99.90;;;;;;5060105;28;20200;-49
2022/12/08 13:25:58;;;;;;;7.43;6.07;;;5.20;99.90;;;;;;5058748;28;20203;-49